Beaufort MCAS - Merritt Field
KNBC : now visible

Airfield :











YOU CAN JOIN US ON...

 
LOGIN :

Register | Disclaimer

   EN    FR    IT 

 









Legend :    VFR   Marginal VFR   IFR   Intensive IFR   Very Intensive IFR
Visi :
Ceiling :
>= 8 km
>= 3000ft
5 to 8 km
1000 to 3000 ft
1500m to 5 km
500 to 1000 ft
800 to 1500m
200 to 500 ft
< 800m
< 200 ft
Symbols :   Thunderstorms  Fog  Heavy snow  Heavy precipitations  Wind > 20 kt






- Airport Elevation : 37 ft


KNBC - Beaufort MCAS - Merritt Field

CURRENT METAR :
  • 061556Z AUTO 10006KT 10SM SCT055 18/11 A3021 RMK AO2 SLP231 T01830106 PNO $

EXPIRED METARs :
  • 061456Z 03006KT 10SM SCT055 16/10 A3024 RMK AO2 SLP240 T01560100 53006
  • 061356Z 00000KT 10SM SCT055 12/09 A3023 RMK AO2 SLP236 T01220089

TAF TAF KNBC
Valid from the 06 at 15:00 until the 07 at 15:00 UTC


0615/0715 VRB06KT 9999 BKN050 QNH3015INS
BECMG 0621/0623 VRB06KT 9999 BKN100 651009 651902 QNH3010INS
BECMG 0703/0705 35010KT 9999 BKN060 650802 QNH3008INS T18/0620Z T02/0713Z



MET'MAP, your aeronautical weather chart ! - Copyright ORBIFLY December 2007 - Disclaimer

ORBIFLY MET'MAP TEAM :

Programming & Development : Alexandra Zaïnal
Concept & original design : Baudouin d'Aumeries
Assistance for programming : Marc-Olivier Méhu
Technical & hardware support : Manuel Goepfert

Contact : metmap@orbifly.com




SOURCES & CREDITS :

   NOAA       Earth
Advisory